Time;durP1;ratioP1;P1;durP2;ratioP2;P2;SDS_P1;SDS_P2;PMS_P1;PMS_P2;Temp;Humidity;BMP_temperature;BMP_pressure;BME280_temperature;BME280_humidity;BME280_pressure;Samples;Min_cycle;Max_cycle;Signal;HPM_P1;HPM_P2
2022/10/27 00:05:09;;;;;;;27.93;21.90;;;10.40;99.90;;;;;;10384555;28;20197;-80
2022/10/27 00:10:31;;;;;;;23.27;18.57;;;10.30;99.90;;;;;;10432406;28;20208;-81
2022/10/27 00:16:00;;;;;;;24.83;18.37;;;10.40;99.90;;;;;;10424643;28;20234;-81
2022/10/27 00:21:23;;;;;;;22.37;17.30;;;10.40;99.90;;;;;;10424638;28;20226;-81
2022/10/27 00:26:44;;;;;;;25.20;19.00;;;10.40;99.90;;;;;;10437156;28;20248;-80
2022/10/27 00:32:06;;;;;;;27.37;18.43;;;10.40;99.90;;;;;;10438428;28;20230;-80
2022/10/27 00:37:28;;;;;;;23.53;18.43;;;;;;;;;;10423954;28;20221;-80
2022/10/27 00:42:49;;;;;;;26.03;18.80;;;10.40;99.90;;;;;;10410538;28;20502;-80
2022/10/27 00:48:11;;;;;;;30.53;20.67;;;10.50;99.90;;;;;;10394112;28;20194;-80
2022/10/27 00:53:32;;;;;;;22.47;17.60;;;10.40;99.90;;;;;;10436969;28;20202;-78
2022/10/27 00:58:55;;;;;;;26.20;18.73;;;;;;;;;;10436887;28;20249;-80
2022/10/27 01:04:27;;;;;;;22.87;17.60;;;;;;;;;;10450856;28;20188;-79
2022/10/27 01:09:49;;;;;;;22.37;17.90;;;10.40;99.90;;;;;;10419473;28;20209;-80
2022/10/27 01:15:11;;;;;;;24.20;18.57;;;10.50;99.90;;;;;;10422751;28;20306;-81
2022/10/27 01:20:41;;;;;;;23.23;17.97;;;10.40;99.90;;;;;;10437740;28;20197;-80
2022/10/27 01:26:35;;;;;;;25.83;19.83;;;10.40;99.90;;;;;;10422448;28;20202;-81
2022/10/27 01:32:27;;;;;;;26.70;20.37;;;10.30;99.90;;;;;;10407916;28;20255;-80
2022/10/27 01:37:56;;;;;;;26.17;19.90;;;10.30;99.90;;;;;;10421502;28;20533;-81
2022/10/27 01:43:22;;;;;;;24.00;19.43;;;10.40;99.90;;;;;;10408959;28;20275;-80
2022/10/27 01:48:45;;;;;;;22.20;18.73;;;10.40;99.90;;;;;;10435388;28;20207;-82
2022/10/27 01:54:06;;;;;;;25.47;17.90;;;10.40;99.90;;;;;;10435800;28;20195;-81
2022/10/27 01:59:39;;;;;;;25.30;20.77;;;10.40;99.90;;;;;;10450080;28;20219;-81
2022/10/27 02:05:13;;;;;;;23.40;18.93;;;10.40;99.90;;;;;;10409231;28;20550;-82
2022/10/27 02:10:44;;;;;;;23.80;18.17;;;10.30;99.90;;;;;;10420749;28;20221;-81
2022/10/27 02:16:15;;;;;;;22.03;18.80;;;10.30;99.90;;;;;;10452579;28;20246;-81
2022/10/27 02:21:38;;;;;;;21.83;17.30;;;10.30;99.90;;;;;;10434760;28;20501;-81
2022/10/27 02:27:11;;;;;;;20.80;16.70;;;10.30;99.90;;;;;;10449412;28;20200;-80
2022/10/27 02:32:35;;;;;;;22.83;17.73;;;10.30;99.90;;;;;;10434228;28;20246;-78
2022/10/27 02:37:58;;;;;;;20.63;17.00;;;10.20;99.90;;;;;;10450074;28;20222;-81
2022/10/27 02:43:19;;;;;;;22.10;17.60;;;10.20;99.90;;;;;;10477158;28;20192;-80
2022/10/27 02:48:40;;;;;;;21.73;18.23;;;10.20;99.90;;;;;;10449731;28;20209;-80
2022/10/27 02:54:02;;;;;;;20.23;15.83;;;10.20;99.90;;;;;;10442019;28;20194;-80
2022/10/27 02:59:23;;;;;;;21.33;16.37;;;10.20;99.90;;;;;;10441496;28;20236;-80
2022/10/27 03:04:44;;;;;;;22.13;18.03;;;10.20;99.90;;;;;;10441096;28;20423;-80
2022/10/27 03:10:06;;;;;;;19.70;16.63;;;10.20;99.90;;;;;;10440584;28;20260;-82
2022/10/27 03:15:27;;;;;;;19.90;16.13;;;10.20;99.90;;;;;;10413533;28;20597;-82
2022/10/27 03:20:48;;;;;;;20.87;17.17;;;10.10;99.90;;;;;;10431571;28;20208;-82
2022/10/27 03:26:10;;;;;;;19.47;16.87;;;10.10;99.90;;;;;;10443262;28;20245;-80
2022/10/27 03:31:31;;;;;;;16.77;14.53;;;10.10;99.90;;;;;;10440267;28;20412;-80
2022/10/27 03:36:52;;;;;;;19.30;15.93;;;10.10;99.90;;;;;;10441201;28;20223;-81
2022/10/27 03:42:13;;;;;;;21.53;17.53;;;10.10;99.90;;;;;;10462561;28;20243;-80
2022/10/27 03:47:34;;;;;;;22.13;17.70;;;10.10;99.90;;;;;;10472410;28;20245;-81
2022/10/27 03:52:55;;;;;;;19.37;16.10;;;10.10;99.90;;;;;;10411929;28;20232;-81
2022/10/27 03:58:17;;;;;;;22.27;17.33;;;10.00;99.90;;;;;;10425029;28;20612;-80
2022/10/27 04:03:38;;;;;;;20.60;16.40;;;10.00;99.90;;;;;;10439158;28;20416;-82
2022/10/27 04:09:00;;;;;;;21.10;16.40;;;10.00;99.90;;;;;;10438796;28;20204;-80
2022/10/27 04:14:21;;;;;;;22.40;17.17;;;10.00;99.90;;;;;;10425052;28;20249;-80
2022/10/27 04:19:42;;;;;;;23.83;19.20;;;10.00;99.90;;;;;;10437625;28;20224;-80
2022/10/27 04:25:03;;;;;;;23.93;18.40;;;10.10;99.90;;;;;;10437791;28;20197;-80
2022/10/27 04:30:25;;;;;;;23.33;18.00;;;10.00;99.90;;;;;;10452022;28;20518;-81
2022/10/27 04:35:46;;;;;;;23.57;17.90;;;10.00;99.90;;;;;;10437284;28;20250;-81
2022/10/27 04:41:07;;;;;;;26.43;21.83;;;10.10;99.90;;;;;;10465158;28;20198;-81
2022/10/27 04:46:28;;;;;;;30.17;22.37;;;10.00;99.90;;;;;;10462830;28;20212;-80
2022/10/27 04:51:49;;;;;;;31.60;24.40;;;10.10;99.90;;;;;;10439503;28;20198;-80
2022/10/27 04:57:11;;;;;;;27.90;20.63;;;10.00;99.90;;;;;;10436883;28;20233;-81
2022/10/27 05:02:32;;;;;;;31.13;22.70;;;10.00;99.90;;;;;;10436747;28;20201;-80
2022/10/27 05:07:56;;;;;;;24.97;20.57;;;10.00;99.90;;;;;;10436601;28;20274;-80
2022/10/27 05:13:17;;;;;;;32.23;24.60;;;10.00;99.90;;;;;;10436005;28;20233;-80
2022/10/27 05:18:38;;;;;;;22.67;19.53;;;10.00;99.90;;;;;;10421560;28;20285;-80
2022/10/27 05:24:00;;;;;;;20.57;16.97;;;10.00;99.90;;;;;;10435937;28;20426;-80
2022/10/27 05:29:21;;;;;;;21.80;17.77;;;10.00;99.90;;;;;;10436890;28;20190;-79
2022/10/27 05:34:43;;;;;;;22.40;19.13;;;10.00;99.90;;;;;;10435546;28;20230;-82
2022/10/27 05:40:05;;;;;;;24.37;18.80;;;10.00;99.90;;;;;;10440640;28;20198;-80
2022/10/27 05:45:27;;;;;;;26.30;18.50;;;10.00;99.90;;;;;;10476179;28;20212;-80
2022/10/27 05:50:52;;;;;;;21.53;17.83;;;9.90;99.90;;;;;;10436851;28;20202;-80
2022/10/27 05:56:14;;;;;;;26.63;20.03;;;9.90;99.90;;;;;;10436115;28;20302;-79
2022/10/27 06:01:35;;;;;;;29.30;25.47;;;9.80;99.90;;;;;;10435342;28;20221;-80
2022/10/27 06:06:56;;;;;;;28.37;22.67;;;9.80;99.90;;;;;;10421437;28;20244;-83
2022/10/27 06:12:18;;;;;;;27.00;20.70;;;9.80;99.90;;;;;;10393690;28;20195;-81
2022/10/27 06:17:39;;;;;;;29.03;21.47;;;9.70;99.90;;;;;;10380399;28;20222;-80
2022/10/27 06:23:00;;;;;;;22.67;17.00;;;9.80;99.90;;;;;;10404648;28;20190;-80
2022/10/27 06:28:21;;;;;;;19.63;15.60;;;9.80;99.90;;;;;;10442497;28;20282;-79
2022/10/27 06:33:42;;;;;;;24.30;18.73;;;9.90;99.90;;;;;;10442262;28;20242;-79
2022/10/27 06:39:04;;;;;;;24.33;18.63;;;9.90;99.90;;;;;;10453221;28;20224;-79
2022/10/27 06:44:25;;;;;;;21.90;16.73;;;9.80;99.90;;;;;;10484334;28;20384;-81
2022/10/27 06:49:46;;;;;;;24.90;19.67;;;9.90;99.90;;;;;;10447820;28;20422;-79
2022/10/27 06:55:08;;;;;;;26.33;18.23;;;10.00;99.90;;;;;;10441745;28;20204;-79
2022/10/27 07:00:29;;;;;;;16.67;14.77;;;10.00;99.90;;;;;;10455525;28;20197;-78
2022/10/27 07:05:50;;;;;;;18.37;15.47;;;10.10;99.90;;;;;;10455176;28;20275;-80
2022/10/27 07:11:11;;;;;;;19.73;16.40;;;10.10;99.90;;;;;;10441904;28;20359;-82
2022/10/27 07:16:32;;;;;;;29.03;22.07;;;10.20;99.90;;;;;;10444010;28;20229;-79
2022/10/27 07:21:55;;;;;;;21.07;17.73;;;10.20;99.90;;;;;;10447365;28;20230;-80
2022/10/27 07:27:17;;;;;;;23.73;18.20;;;10.30;99.90;;;;;;10476506;28;20871;-79
2022/10/27 07:32:38;;;;;;;17.87;14.60;;;10.30;99.90;;;;;;10478420;28;20254;-81
2022/10/27 07:37:59;;;;;;;18.23;14.90;;;10.40;99.90;;;;;;10477256;28;20220;-80
2022/10/27 07:43:21;;;;;;;18.70;15.83;;;10.40;99.90;;;;;;10516522;28;20209;-82
2022/10/27 07:48:42;;;;;;;20.23;16.77;;;10.50;99.90;;;;;;10492054;28;20189;-81
2022/10/27 07:54:03;;;;;;;14.20;12.33;;;10.60;99.90;;;;;;10475606;28;20199;-81
2022/10/27 07:59:24;;;;;;;19.73;16.37;;;10.70;99.90;;;;;;10475625;28;20221;-78
2022/10/27 08:04:45;;;;;;;18.30;15.00;;;10.80;99.90;;;;;;10489969;28;20217;-80
2022/10/27 08:10:06;;;;;;;17.93;13.70;;;10.90;99.90;;;;;;10491636;28;20195;-80
2022/10/27 08:15:28;;;;;;;17.03;13.33;;;10.90;99.90;;;;;;10488356;28;20196;-82
2022/10/27 08:20:50;;;;;;;17.03;14.50;;;11.10;99.90;;;;;;10488208;28;20431;-81
2022/10/27 08:26:11;;;;;;;18.03;14.17;;;11.30;99.90;;;;;;10460472;28;20286;-80
2022/10/27 08:31:32;;;;;;;18.33;14.13;;;11.40;99.90;;;;;;10460022;28;20528;-80
2022/10/27 08:36:53;;;;;;;14.77;13.03;;;11.50;99.90;;;;;;10475683;28;20225;-81
2022/10/27 08:42:23;;;;;;;17.03;12.97;;;11.50;99.90;;;;;;10478568;28;20204;-81
2022/10/27 08:47:45;;;;;;;19.07;14.47;;;11.50;99.90;;;;;;10472840;28;20199;-80
2022/10/27 08:53:14;;;;;;;18.87;13.47;;;11.70;99.90;;;;;;10473289;28;20437;-80
2022/10/27 08:58:35;;;;;;;30.47;23.60;;;11.80;99.90;;;;;;10434223;28;20256;-80
2022/10/27 09:04:14;;;;;;;20.53;16.37;;;11.80;99.90;;;;;;10448845;28;20205;-81
2022/10/27 09:09:52;;;;;;;20.00;15.90;;;12.10;99.90;;;;;;10447559;28;20507;-81
2022/10/27 09:15:22;;;;;;;18.77;13.50;;;12.30;99.90;;;;;;10472940;28;20306;-82
2022/10/27 09:20:55;;;;;;;20.23;14.80;;;12.60;99.90;;;;;;10482851;28;20208;-81
2022/10/27 09:26:21;;;;;;;26.70;16.90;;;12.70;99.90;;;;;;10444425;28;20236;-81
2022/10/27 09:31:50;;;;;;;20.23;14.93;;;12.60;99.90;;;;;;10428015;28;20475;-80
2022/10/27 09:37:19;;;;;;;21.33;15.47;;;12.70;99.90;;;;;;10451389;28;20245;-81
2022/10/27 09:42:40;;;;;;;19.57;15.93;;;12.60;99.90;;;;;;10524285;28;20192;-80
2022/10/27 09:48:06;;;;;;;20.67;16.23;;;12.60;99.90;;;;;;10504250;28;20249;-80
2022/10/27 09:53:41;;;;;;;23.73;17.57;;;12.50;99.90;;;;;;10471870;28;20194;-81
2022/10/27 09:59:05;;;;;;;26.60;19.00;;;12.50;99.90;;;;;;10477114;28;20262;-81
2022/10/27 10:04:44;;;;;;;21.90;17.00;;;12.40;99.90;;;;;;10481645;28;20199;-84
2022/10/27 10:10:25;;;;;;;24.03;19.23;;;12.30;99.90;;;;;;10482582;28;20203;-81
2022/10/27 10:15:47;;;;;;;25.83;19.03;;;12.30;99.90;;;;;;10492908;28;20267;-83
2022/10/27 10:21:13;;;;;;;25.47;19.00;;;12.30;99.90;;;;;;10475340;28;20216;-82
2022/10/27 10:26:34;;;;;;;28.07;21.10;;;12.40;99.90;;;;;;10440205;28;20201;-83
2022/10/27 10:32:16;;;;;;;24.97;19.17;;;12.40;99.90;;;;;;10476987;28;20233;-80
2022/10/27 10:37:45;;;;;;;29.40;21.53;;;12.40;99.90;;;;;;10492299;28;20250;-81
2022/10/27 10:43:15;;;;;;;27.67;20.07;;;12.40;99.90;;;;;;10450309;28;20217;-80
2022/10/27 10:48:45;;;;;;;33.97;24.47;;;12.50;99.90;;;;;;10489009;28;20194;-81
2022/10/27 10:54:17;;;;;;;32.47;23.40;;;12.60;99.90;;;;;;10464313;28;20224;-81
2022/10/27 10:59:45;;;;;;;32.80;22.57;;;12.80;99.90;;;;;;10485979;28;20223;-80
2022/10/27 11:05:20;;;;;;;33.73;23.40;;;13.10;99.90;;;;;;10482056;28;20201;-79
2022/10/27 11:10:42;;;;;;;32.83;24.33;;;13.30;99.90;;;;;;10461844;28;20499;-81
2022/10/27 11:16:07;;;;;;;33.80;23.70;;;13.40;99.90;;;;;;10478637;28;20211;-81
2022/10/27 11:21:39;;;;;;;50.13;27.13;;;;;;;;;;10487765;28;20217;-81
2022/10/27 11:27:11;;;;;;;31.00;23.20;;;14.00;99.90;;;;;;10451403;28;20202;-82
2022/10/27 11:33:03;;;;;;;29.93;23.20;;;14.40;99.90;;;;;;10476294;28;20246;-79
2022/10/27 11:38:30;;;;;;;27.83;20.27;;;14.50;99.90;;;;;;10481250;28;20536;-81
2022/10/27 11:44:22;;;;;;;31.10;22.25;;;14.70;99.90;;;;;;10531879;28;20535;-82
2022/10/27 11:49:50;;;;;;;29.40;19.42;;;;;;;;;;10479306;28;20221;-80
2022/10/27 11:55:20;;;;;;;32.05;22.05;;;15.50;99.90;;;;;;10489600;28;20218;-83
2022/10/27 12:01:05;;;;;;;30.42;21.42;;;;;;;;;;10489431;28;20309;-82
2022/10/27 12:06:30;;;;;;;23.88;17.17;;;;;;;;;;10442011;28;20586;-81
2022/10/27 12:12:12;;;;;;;20.67;15.32;;;;;;;;;;10447441;28;20204;-82
2022/10/27 12:17:59;;;;;;;27.05;15.93;;;18.30;99.90;;;;;;10335963;28;20233;-78
2022/10/27 12:23:27;;;;;;;16.15;13.60;;;19.20;99.90;;;;;;10329494;28;20644;-81
2022/10/27 12:28:49;;;;;;;13.38;11.43;;;19.90;99.90;;;;;;10318770;28;20221;-81
2022/10/27 12:34:15;;;;;;;16.17;13.25;;;20.10;99.90;;;;;;10334018;28;20234;-79
2022/10/27 12:39:43;;;;;;;13.80;10.90;;;;;;;;;;10328543;28;20233;-80
2022/10/27 12:45:27;;;;;;;22.35;17.15;;;21.00;99.90;;;;;;10331345;28;20381;-80
2022/10/27 12:51:05;;;;;;;17.10;12.05;;;20.90;99.10;;;;;;10297149;28;20205;-80
2022/10/27 12:57:00;;;;;;;18.88;13.80;;;20.70;98.90;;;;;;10445892;28;20208;-81
2022/10/27 13:02:32;;;;;;;23.20;13.23;;;20.00;99.90;;;;;;10333646;28;20508;-80
2022/10/27 13:07:56;;;;;;;25.50;14.45;;;19.10;99.90;;;;;;10371685;28;20248;-80
2022/10/27 13:13:45;;;;;;;21.10;13.75;;;18.30;99.90;;;;;;10390101;28;20204;-78
2022/10/27 13:19:36;;;;;;;14.35;11.85;;;17.70;99.90;;;;;;10372613;28;20230;-79
2022/10/27 13:25:10;;;;;;;18.40;13.60;;;17.00;99.90;;;;;;10377186;28;20224;-79
2022/10/27 13:30:36;;;;;;;28.83;21.15;;;16.60;99.90;;;;;;10388281;28;20567;-79
2022/10/27 13:36:19;;;;;;;22.30;16.83;;;16.20;99.90;;;;;;10380314;28;20224;-78
2022/10/27 13:42:01;;;;;;;21.77;14.75;;;16.10;99.90;;;;;;10482490;28;20260;-80
2022/10/27 13:47:23;;;;;;;16.65;12.52;;;15.90;99.90;;;;;;10527567;28;20196;-79
2022/10/27 13:52:44;;;;;;;20.75;13.15;;;15.70;99.90;;;;;;10472955;28;20256;-80
2022/10/27 13:58:18;;;;;;;34.65;21.80;;;15.50;99.90;;;;;;10458300;28;20257;-79
2022/10/27 14:04:08;;;;;;;38.67;24.35;;;15.40;99.90;;;;;;10470987;28;20196;-79
2022/10/27 14:09:48;;;;;;;35.28;23.40;;;15.30;99.90;;;;;;10456682;28;20207;-81
2022/10/27 14:15:09;;;;;;;29.25;20.30;;;15.40;99.90;;;;;;10470812;28;20209;-80
2022/10/27 14:20:37;;;;;;;11.10;5.50;;;15.40;99.90;;;;;;10471078;28;20217;-80
2022/10/27 14:26:32;;;;;;;12.10;4.22;;;15.50;99.90;;;;;;10469953;28;20220;-79
2022/10/27 14:32:18;;;;;;;7.65;3.55;;;15.40;99.90;;;;;;10488302;28;20233;-82
2022/10/27 14:37:39;;;;;;;13.77;4.35;;;15.30;99.90;;;;;;10484006;28;20417;-80
2022/10/27 14:43:01;;;;;;;11.52;4.32;;;15.30;99.90;;;;;;10465133;28;20197;-79
2022/10/27 14:48:31;;;;;;;7.07;4.20;;;15.20;99.90;;;;;;10495256;28;20233;-81
2022/10/27 14:53:55;;;;;;;8.00;4.03;;;15.00;99.90;;;;;;10477505;28;20208;-79
2022/10/27 14:59:28;;;;;;;14.10;5.43;;;14.80;99.90;;;;;;10495654;28;20238;-81
2022/10/27 15:04:51;;;;;;;16.33;8.30;;;14.70;99.90;;;;;;10495268;28;20199;-81
2022/10/27 15:10:17;;;;;;;18.07;11.17;;;14.50;99.90;;;;;;10526045;28;20778;-77
2022/10/27 15:15:44;;;;;;;23.37;14.87;;;14.20;99.90;;;;;;10480539;28;20206;-77
2022/10/27 15:21:26;;;;;;;38.80;20.33;;;14.00;99.90;;;;;;10482792;28;20223;-79
2022/10/27 15:26:47;;;;;;;39.23;22.40;;;13.80;99.90;;;;;;10478984;28;20205;-80
2022/10/27 15:32:41;;;;;;;42.83;22.73;;;13.80;99.90;;;;;;10499685;28;20228;-79
2022/10/27 15:38:21;;;;;;;44.63;23.53;;;13.60;99.90;;;;;;10497248;28;20225;-82
2022/10/27 15:43:43;;;;;;;52.57;26.10;;;13.50;99.90;;;;;;10539191;28;20266;-80
2022/10/27 15:49:23;;;;;;;48.00;24.03;;;;;;;;;;10537131;28;20199;-81
2022/10/27 15:54:53;;;;;;;35.50;19.93;;;13.40;99.90;;;;;;10514962;28;20197;-79
2022/10/27 16:00:21;;;;;;;43.37;22.60;;;13.20;99.90;;;;;;10481383;28;20305;-78
2022/10/27 16:05:43;;;;;;;44.90;24.30;;;13.10;99.90;;;;;;10480909;28;20195;-80
2022/10/27 16:11:04;;;;;;;46.20;25.47;;;13.00;99.90;;;;;;10441718;28;20203;-79
2022/10/27 16:16:25;;;;;;;44.27;23.23;;;13.00;99.90;;;;;;10439810;28;20196;-77
2022/10/27 16:21:47;;;;;;;34.67;20.47;;;;;;;;;;10477757;28;20436;-79
2022/10/27 16:27:32;;;;;;;46.23;25.13;;;12.70;99.90;;;;;;10493720;28;20213;-78
2022/10/27 16:33:00;;;;;;;48.10;26.60;;;12.60;99.90;;;;;;10479462;28;20239;-79
2022/10/27 16:38:22;;;;;;;62.73;37.17;;;12.50;99.90;;;;;;10484743;28;20218;-78
2022/10/27 16:43:45;;;;;;;78.73;43.17;;;;;;;;;;10501121;28;20200;-81
2022/10/27 16:49:06;;;;;;;85.30;48.87;;;12.30;99.90;;;;;;10479290;28;20193;-78
2022/10/27 16:54:28;;;;;;;91.33;51.80;;;12.20;99.90;;;;;;10493460;28;20197;-83
2022/10/27 16:59:49;;;;;;;98.97;61.67;;;12.20;99.90;;;;;;10495498;28;20229;-78
2022/10/27 17:05:10;;;;;;;101.90;62.30;;;;;;;;;;10480903;28;20204;-77
2022/10/27 17:10:31;;;;;;;102.43;64.43;;;12.10;99.90;;;;;;10502601;28;20213;-82
2022/10/27 17:15:54;;;;;;;113.43;70.27;;;;;;;;;;10494643;28;20188;-79
2022/10/27 17:21:16;;;;;;;122.47;72.23;;;;;;;;;;10477919;28;20234;-82
2022/10/27 17:26:37;;;;;;;112.67;67.37;;;;;;;;;;10480090;28;20484;-78
2022/10/27 17:31:58;;;;;;;104.67;63.90;;;;;;;;;;10492026;28;20283;-80
2022/10/27 17:37:19;;;;;;;102.87;63.40;;;;;;;;;;10462941;28;20231;-80
2022/10/27 17:42:41;;;;;;;105.80;66.67;;;;;;;;;;10505542;28;20406;-82
2022/10/27 17:48:03;;;;;;;104.40;64.77;;;;;;;;;;10494202;28;20201;-81
2022/10/27 17:53:24;;;;;;;107.87;68.27;;;;;;;;;;10492064;28;20265;-81
2022/10/27 17:58:46;;;;;;;118.30;67.50;;;;;;;;;;10493715;28;20424;-79
2022/10/27 18:04:10;;;;;;;105.70;63.57;;;;;;;;;;10477780;28;20219;-79
2022/10/27 18:09:31;;;;;;;113.70;67.33;;;;;;;;;;10471145;28;20200;-78
2022/10/27 18:14:53;;;;;;;119.13;68.60;;;;;;;;;;10490804;28;20467;-83
2022/10/27 18:20:15;;;;;;;121.40;70.23;;;11.30;99.90;;;;;;10482422;28;20219;-78
2022/10/27 18:25:36;;;;;;;122.27;72.47;;;11.20;99.90;;;;;;10443010;28;20282;-77
2022/10/27 18:31:05;;;;;;;128.73;77.67;;;11.10;99.90;;;;;;10443301;28;20203;-82
2022/10/27 18:36:26;;;;;;;126.57;73.60;;;11.00;99.90;;;;;;10459660;28;20379;-81
2022/10/27 18:41:47;;;;;;;113.93;65.90;;;11.00;99.90;;;;;;10496463;28;20293;-79
2022/10/27 18:47:08;;;;;;;107.40;59.20;;;10.90;99.90;;;;;;10484397;28;20206;-77
2022/10/27 18:52:29;;;;;;;97.17;59.03;;;10.90;99.90;;;;;;10500743;28;20209;-82
2022/10/27 18:57:51;;;;;;;106.97;62.83;;;10.80;99.90;;;;;;10483641;28;20236;-81
2022/10/27 19:03:14;;;;;;;109.87;63.10;;;10.80;99.90;;;;;;10482724;28;20193;-79
2022/10/27 19:08:35;;;;;;;113.37;62.40;;;10.70;99.90;;;;;;10496894;28;20267;-79
2022/10/27 19:13:58;;;;;;;118.83;62.73;;;10.60;99.90;;;;;;10483276;28;20552;-80
2022/10/27 19:19:19;;;;;;;118.63;58.77;;;;;;;;;;10499524;28;20234;-82
2022/10/27 19:24:40;;;;;;;122.17;60.23;;;10.50;99.90;;;;;;10496435;28;20383;-81
2022/10/27 19:30:02;;;;;;;96.60;52.90;;;10.50;99.90;;;;;;10498037;28;20202;-78
2022/10/27 19:35:22;;;;;;;98.40;48.87;;;10.50;99.90;;;;;;10481866;28;20301;-79
2022/10/27 19:40:44;;;;;;;105.27;51.60;;;10.50;99.90;;;;;;10516537;28;20229;-78
2022/10/27 19:46:06;;;;;;;128.40;61.00;;;10.50;99.90;;;;;;10540227;28;20191;-78
2022/10/27 19:51:33;;;;;;;130.40;65.20;;;10.60;99.90;;;;;;10524058;28;20206;-78
2022/10/27 19:56:55;;;;;;;114.37;61.70;;;10.70;99.90;;;;;;10523139;28;20195;-78
2022/10/27 20:02:16;;;;;;;132.00;66.23;;;10.70;99.90;;;;;;10528880;28;20193;-82
2022/10/27 20:07:37;;;;;;;126.10;66.27;;;10.80;99.90;;;;;;10479640;28;20204;-78
2022/10/27 20:12:58;;;;;;;87.93;47.33;;;10.90;99.90;;;;;;10479148;28;20196;-78
2022/10/27 20:18:22;;;;;;;58.17;34.13;;;11.20;99.90;;;;;;10480185;28;20226;-77
2022/10/27 20:23:44;;;;;;;43.77;28.97;;;11.40;99.90;;;;;;10482170;28;20201;-78
2022/10/27 20:29:05;;;;;;;33.40;21.23;;;11.60;99.90;;;;;;10493870;28;20181;-78
2022/10/27 20:34:26;;;;;;;31.37;22.40;;;11.70;99.90;;;;;;10465316;28;20501;-78
2022/10/27 20:39:47;;;;;;;32.43;20.40;;;11.80;99.90;;;;;;10468476;28;20537;-79
2022/10/27 20:45:09;;;;;;;27.30;19.33;;;11.90;99.90;;;;;;10511402;28;20231;-79
2022/10/27 20:50:30;;;;;;;20.50;17.57;;;12.00;99.90;;;;;;10478675;28;20495;-80
2022/10/27 20:55:52;;;;;;;26.30;21.47;;;12.00;99.90;;;;;;10481457;28;20225;-79
2022/10/27 21:01:27;;;;;;;21.13;17.30;;;12.00;99.90;;;;;;10478348;28;20224;-79
2022/10/27 21:06:49;;;;;;;23.53;18.97;;;11.90;99.90;;;;;;10494011;28;20199;-78
2022/10/27 21:12:10;;;;;;;22.40;17.97;;;12.00;99.90;;;;;;10494099;28;20199;-79
2022/10/27 21:17:32;;;;;;;26.20;20.20;;;12.00;99.90;;;;;;10479705;28;20208;-78
2022/10/27 21:22:54;;;;;;;23.00;19.07;;;12.00;99.90;;;;;;10490180;28;20449;-78
2022/10/27 21:28:15;;;;;;;23.57;17.27;;;12.00;99.90;;;;;;10477480;28;20515;-80
2022/10/27 21:33:36;;;;;;;24.93;19.67;;;12.00;99.90;;;;;;10477068;28;20236;-79
2022/10/27 21:38:58;;;;;;;25.43;19.90;;;12.00;99.90;;;;;;10493204;28;20219;-79
2022/10/27 21:44:21;;;;;;;26.97;17.97;;;12.00;99.90;;;;;;10476653;28;20192;-79
2022/10/27 21:49:43;;;;;;;26.20;18.97;;;12.00;99.90;;;;;;10491416;28;20196;-79
2022/10/27 21:55:05;;;;;;;27.63;19.77;;;12.10;99.90;;;;;;10509961;28;20220;-79
2022/10/27 22:00:25;;;;;;;24.17;18.87;;;12.10;99.90;;;;;;10510496;28;20235;-79
2022/10/27 22:05:53;;;;;;;26.93;20.33;;;12.10;99.90;;;;;;10476990;28;20238;-78
2022/10/27 22:11:30;;;;;;;21.80;18.07;;;12.10;99.90;;;;;;10490611;28;20224;-78
2022/10/27 22:16:51;;;;;;;27.87;19.87;;;12.10;99.90;;;;;;10479191;28;20492;-84
2022/10/27 22:22:12;;;;;;;35.97;22.80;;;12.10;99.90;;;;;;10477339;28;20289;-80
2022/10/27 22:27:37;;;;;;;26.97;18.80;;;12.10;99.90;;;;;;10435949;28;20194;-79
2022/10/27 22:32:59;;;;;;;26.43;18.97;;;12.10;99.90;;;;;;10451572;28;20550;-78
2022/10/27 22:38:21;;;;;;;26.13;19.97;;;12.10;99.90;;;;;;10453620;28;20215;-78
2022/10/27 22:43:43;;;;;;;29.83;19.87;;;12.10;99.90;;;;;;10476242;28;20268;-78
2022/10/27 22:49:04;;;;;;;35.90;27.57;;;12.00;99.90;;;;;;10492781;28;20522;-79
2022/10/27 22:54:25;;;;;;;27.60;21.53;;;12.00;99.90;;;;;;10477918;28;20209;-82
2022/10/27 22:59:46;;;;;;;31.40;22.70;;;12.10;99.90;;;;;;10475809;28;20295;-82
2022/10/27 23:05:07;;;;;;;36.37;27.50;;;12.00;99.90;;;;;;10478290;28;20492;-80
2022/10/27 23:10:28;;;;;;;34.63;24.63;;;12.00;99.90;;;;;;10483666;28;20443;-79
2022/10/27 23:15:57;;;;;;;28.10;22.07;;;12.10;99.90;;;;;;10484080;28;20269;-79
2022/10/27 23:21:18;;;;;;;25.70;19.17;;;12.10;99.90;;;;;;10496839;28;20307;-78
2022/10/27 23:26:39;;;;;;;24.17;19.70;;;12.10;99.90;;;;;;10457592;28;20202;-79
2022/10/27 23:32:00;;;;;;;20.53;16.80;;;12.10;99.90;;;;;;10441833;28;20230;-80
2022/10/27 23:37:21;;;;;;;24.27;17.90;;;12.10;99.90;;;;;;10440551;28;20437;-81
2022/10/27 23:42:42;;;;;;;26.03;18.10;;;12.10;99.90;;;;;;10536100;28;20271;-80
2022/10/27 23:48:04;;;;;;;24.57;19.70;;;12.20;99.90;;;;;;10506239;28;20193;-80
2022/10/27 23:53:27;;;;;;;25.83;20.00;;;12.20;99.90;;;;;;10495669;28;20195;-80
2022/10/27 23:58:48;;;;;;;24.33;17.57;;;12.20;99.90;;;;;;10497969;28;20221;-81
